Time;durP1;ratioP1;P1;durP2;ratioP2;P2;SDS_P1;SDS_P2;PMS_P1;PMS_P2;Temp;Humidity;BMP_temperature;BMP_pressure;BME280_temperature;BME280_humidity;BME280_pressure;Samples;Min_cycle;Max_cycle;Signal;HPM_P1;HPM_P2
2022/09/10 00:01:32;;;;;;;;;;;;;;;13.13;100.00;100772.88;5074455;28;19919;-65
2022/09/10 00:03:58;;;;;;;;;;;;;;;13.16;100.00;100775.50;5070575;28;19912;-67
2022/09/10 00:06:26;;;;;;;;;;;;;;;13.17;100.00;100776.41;5074315;28;19913;-73
2022/09/10 00:08:52;;;;;;;;;;;;;;;13.18;100.00;100773.72;5074204;28;19919;-68
2022/09/10 00:11:19;;;;;;;;;;;;;;;13.20;100.00;100771.06;5074294;28;19912;-68
2022/09/10 00:13:44;;;;;;;;;;;;;;;13.23;100.00;100771.91;5073980;28;19916;-68
2022/09/10 00:16:11;;;;;;;;;;;;;;;13.22;100.00;100770.16;5073853;28;20390;-74
2022/09/10 00:18:38;;;;;;;;;;;;;;;13.19;100.00;100767.53;5074237;28;19935;-70
2022/09/10 00:21:05;;;;;;;;;;;;;;;13.19;100.00;100759.56;5074131;28;19912;-67
2022/09/10 00:23:30;;;;;;;;;;;;;;;13.15;100.00;100763.13;5073693;28;19916;-68
2022/09/10 00:25:56;;;;;;;;;;;;;;;13.13;100.00;100759.59;5074052;28;19970;-68
2022/09/10 00:28:23;;;;;;;;;;;;;;;13.16;100.00;100764.88;5072654;28;19913;-74
2022/09/10 00:30:49;;;;;;;;;;;;;;;13.17;100.00;100771.09;5073392;28;19920;-73
2022/09/10 00:33:16;;;;;;;;;;;;;;;13.16;100.00;100766.66;5074152;28;20307;-73
2022/09/10 00:35:41;;;;;;;;;;;;;;;13.15;100.00;100771.09;5073600;28;19912;-74
2022/09/10 00:38:07;;;;;;;;;;;;;;;13.14;100.00;100771.97;5073862;28;19919;-70
2022/09/10 00:40:33;;;;;;;;;;;;;;;13.13;100.00;100766.69;5073804;28;20350;-72
2022/09/10 00:42:58;;;;;;;;;;;;;;;13.13;100.00;100772.00;5069738;28;19916;-70
2022/09/10 00:45:25;;;;;;;;;;;;;;;13.12;100.00;100771.13;5073290;28;19916;-71
2022/09/10 00:47:52;;;;;;;;;;;;;;;13.11;100.00;100765.84;5073492;28;20006;-71
2022/09/10 00:50:17;;;;;;;;;;;;;;;13.12;100.00;100757.84;5073372;28;20404;-69
2022/09/10 00:52:43;;;;;;;;;;;;;;;13.10;100.00;100764.94;5073700;28;19916;-66
2022/09/10 00:55:10;;;;;;;;;;;;;;;13.09;100.00;100760.50;5073539;28;19912;-70
2022/09/10 00:57:36;;;;;;;;;;;;;;;13.10;100.00;100764.94;5073246;28;19912;-72
2022/09/10 01:00:05;;;;;;;;;;;;;;;13.15;100.00;100771.09;5073360;28;19919;-66
2022/09/10 01:02:31;;;;;;;;;;;;;;;13.14;100.00;100764.03;5069837;28;19919;-67
2022/09/10 01:04:57;;;;;;;;;;;;;;;13.19;100.00;100775.50;5073230;28;19912;-74
2022/09/10 01:07:23;;;;;;;;;;;;;;;13.20;100.00;100773.72;5073381;28;19912;-69
2022/09/10 01:09:49;;;;;;;;;;;;;;;13.25;100.00;100786.06;5073346;28;20019;-68
2022/09/10 01:12:28;;;;;;;;;;;;;;;13.30;100.00;100777.19;5073062;28;19960;-72
2022/09/10 01:15:06;;;;;;;;;;;;;;;13.34;100.00;100784.22;5072894;28;19921;-68
2022/09/10 01:17:34;;;;;;;;;;;;;;;13.36;100.00;100779.81;5069413;28;19912;-63
2022/09/10 01:20:09;;;;;;;;;;;;;;;13.37;100.00;100782.47;5069196;28;19959;-65
2022/09/10 01:22:35;;;;;;;;;;;;;;;13.36;100.00;100775.38;5069693;28;20339;-63
2022/09/10 01:25:19;;;;;;;;;;;;;;;13.39;100.00;100782.44;5073142;28;19966;-64
2022/09/10 01:27:47;;;;;;;;;;;;;;;13.29;100.00;100778.94;5071169;28;19912;-64
2022/09/10 01:30:16;;;;;;;;;;;;;;;13.27;100.00;100778.09;5073097;28;19913;-64
2022/09/10 01:32:45;;;;;;;;;;;;;;;13.27;100.00;100772.78;5072920;28;19960;-64
2022/09/10 01:35:15;;;;;;;;;;;;;;;13.29;100.00;100778.94;5072844;28;19912;-64
2022/09/10 01:37:43;;;;;;;;;;;;;;;13.26;100.00;100776.31;5072635;28;19916;-65
2022/09/10 01:40:09;;;;;;;;;;;;;;;13.24;100.00;100772.81;5072773;28;20382;-65
2022/09/10 01:42:36;;;;;;;;;;;;;;;13.25;100.00;100774.53;5072771;28;20003;-65
2022/09/10 01:45:02;;;;;;;;;;;;;;;13.27;100.00;100778.09;5072818;28;19912;-64
2022/09/10 01:47:33;;;;;;;;;;;;;;;13.31;100.00;100778.94;5072964;28;19999;-65
2022/09/10 01:50:16;;;;;;;;;;;;;;;13.35;100.00;100783.34;5072588;28;19963;-65
2022/09/10 01:52:46;;;;;;;;;;;;;;;13.32;100.00;100784.22;5070097;28;20371;-65
2022/09/10 01:55:11;;;;;;;;;;;;;;;13.34;100.00;100777.19;5072880;28;19912;-64
2022/09/10 01:57:49;;;;;;;;;;;;;;;13.32;100.00;100775.38;5072879;28;20062;-65
2022/09/10 02:00:15;;;;;;;;;;;;;;;13.30;100.00;100769.22;5072736;28;19923;-64
2022/09/10 02:02:41;;;;;;;;;;;;;;;13.30;100.00;100779.84;5072515;28;19918;-66
2022/09/10 02:05:07;;;;;;;;;;;;;;;13.33;100.00;100777.16;5072561;28;19917;-65
2022/09/10 02:07:34;;;;;;;;;;;;;;;13.33;100.00;100777.16;5072671;28;19958;-63
2022/09/10 02:10:01;;;;;;;;;;;;;;;13.32;100.00;100770.94;5068451;28;20026;-64
2022/09/10 02:12:27;;;;;;;;;;;;;;;13.38;100.00;100762.09;5072703;28;20279;-63
2022/09/10 02:14:54;;;;;;;;;;;;;;;13.36;100.00;100767.41;5072705;28;19919;-64
2022/09/10 02:17:20;;;;;;;;;;;;;;;13.36;100.00;100767.41;5072419;28;19912;-65
2022/09/10 02:19:46;;;;;;;;;;;;;;;13.37;100.00;100766.53;5072567;28;20302;-64
2022/09/10 02:22:14;;;;;;;;;;;;;;;13.41;100.00;100754.09;5072237;28;19916;-64
2022/09/10 02:24:39;;;;;;;;;;;;;;;13.42;100.00;100754.06;5072246;28;20272;-65
2022/09/10 02:27:05;;;;;;;;;;;;;;;13.41;100.00;100754.09;5072502;28;19916;-65
2022/09/10 02:29:30;;;;;;;;;;;;;;;13.40;100.00;100757.66;5072407;28;19915;-65
2022/09/10 02:31:56;;;;;;;;;;;;;;;13.43;100.00;100757.63;5072020;28;19962;-64
2022/09/10 02:34:21;;;;;;;;;;;;;;;13.45;100.00;100754.97;5072406;28;19912;-64
2022/09/10 02:36:47;;;;;;;;;;;;;;;13.44;100.00;100748.78;5072110;28;19919;-63
2022/09/10 02:39:12;;;;;;;;;;;;;;;13.51;100.00;100745.16;5072459;28;20360;-62
2022/09/10 02:41:39;;;;;;;;;;;;;;;13.46;100.00;100746.97;5072364;28;19912;-63
2022/09/10 02:44:05;;;;;;;;;;;;;;;13.50;100.00;100748.72;5072287;28;20003;-63
2022/09/10 02:46:30;;;;;;;;;;;;;;;13.44;100.00;100748.78;5072254;28;20016;-62
2022/09/10 02:48:55;;;;;;;;;;;;;;;13.47;100.00;100751.41;5072267;28;19919;-64
2022/09/10 02:51:21;;;;;;;;;;;;;;;13.47;100.00;100756.72;5074946;28;19912;-64
2022/09/10 02:53:46;;;;;;;;;;;;;;;13.46;100.00;100757.59;5075931;28;19909;-63
2022/09/10 02:56:12;;;;;;;;;;;;;;;13.51;100.00;100749.59;5075729;28;19913;-63
2022/09/10 02:58:37;;;;;;;;;;;;;;;13.49;100.00;100757.56;5075807;28;19939;-64
2022/09/10 03:01:07;;;;;;;;;;;;;;;13.51;100.00;100755.78;5075633;28;20271;-71
2022/09/10 03:03:32;;;;;;;;;;;;;;;13.56;100.00;100753.09;5072231;28;19912;-63
2022/09/10 03:05:58;;;;;;;;;;;;;;;13.53;100.00;100755.78;5075731;28;20382;-63
2022/09/10 03:08:23;;;;;;;;;;;;;;;13.53;100.00;100755.78;5075373;28;20371;-67
2022/09/10 03:10:48;;;;;;;;;;;;;;;13.53;100.00;100754.00;5075480;28;19912;-63
2022/09/10 03:13:13;;;;;;;;;;;;;;;13.54;100.00;100750.47;5075338;28;19916;-65
2022/09/10 03:15:40;;;;;;;;;;;;;;;13.57;100.00;100755.72;5075714;28;19985;-65
2022/09/10 03:18:06;;;;;;;;;;;;;;;13.60;100.00;100761.00;5075264;28;19920;-63
2022/09/10 03:20:31;;;;;;;;;;;;;;;13.59;100.00;100753.94;5075101;28;19912;-64
2022/09/10 03:22:56;;;;;;;;;;;;;;;13.59;100.00;100753.94;5075485;28;19916;-64
2022/09/10 03:25:21;;;;;;;;;;;;;;;13.61;100.00;100751.25;5075254;28;19912;-64
2022/09/10 03:27:46;;;;;;;;;;;;;;;13.59;100.00;100748.63;5075287;28;19913;-63
2022/09/10 03:30:12;;;;;;;;;;;;;;;13.67;100.00;100750.31;5074940;28;19912;-63
2022/09/10 03:32:37;;;;;;;;;;;;;;;13.63;100.00;100751.25;5075156;28;19920;-64
2022/09/10 03:35:02;;;;;;;;;;;;;;;13.62;100.00;100753.03;5074931;28;20367;-63
2022/09/10 03:37:30;;;;;;;;;;;;;;;13.59;100.00;100753.94;5074968;28;19912;-64
2022/09/10 03:39:55;;;;;;;;;;;;;;;13.57;100.00;100755.72;5074955;28;19920;-63
2022/09/10 03:42:20;;;;;;;;;;;;;;;13.57;100.00;100753.06;5075039;28;20367;-65
2022/09/10 03:44:45;;;;;;;;;;;;;;;13.56;100.00;100753.97;5074867;28;19959;-63
2022/09/10 03:47:11;;;;;;;;;;;;;;;13.64;100.00;100751.22;5074735;28;19912;-64
2022/09/10 03:49:37;;;;;;;;;;;;;;;13.59;100.00;100748.63;5074885;28;19912;-64
2022/09/10 03:52:02;;;;;;;;;;;;;;;13.63;100.00;100743.28;5074508;28;20014;-64
2022/09/10 03:54:28;;;;;;;;;;;;;;;13.63;100.00;100744.19;5074442;28;19919;-64
2022/09/10 03:56:53;;;;;;;;;;;;;;;13.62;100.00;100746.84;5074811;28;19919;-63
2022/09/10 03:59:18;;;;;;;;;;;;;;;13.60;100.00;100742.44;5074595;28;19912;-64
2022/09/10 04:01:44;;;;;;;;;;;;;;;13.60;100.00;100745.09;5074040;28;20339;-63
2022/09/10 04:04:09;;;;;;;;;;;;;;;13.62;100.00;100745.06;5074671;28;20011;-63
2022/09/10 04:06:36;;;;;;;;;;;;;;;13.67;100.00;100742.34;5074332;28;19916;-65
2022/09/10 04:09:01;;;;;;;;;;;;;;;13.65;100.00;100737.06;5070083;28;19920;-64
2022/09/10 04:11:26;;;;;;;;;;;;;;;13.62;100.00;100730.91;5074204;28;19923;-64
2022/09/10 04:13:52;;;;;;;;;;;;;;;13.66;100.00;100736.19;5074088;28;19912;-65
2022/09/10 04:16:18;;;;;;;;;;;;;;;13.62;100.00;100730.91;5074303;28;19912;-70
2022/09/10 04:18:43;;;;;;;;;;;;;;;13.66;100.00;100729.97;5074484;28;20359;-78
2022/09/10 04:21:08;;;;;;;;;;;;;;;13.62;100.00;100729.13;5073828;28;19966;-78
2022/09/10 04:23:34;;;;;;;;;;;;;;;13.68;100.00;100739.69;5073901;28;19916;-75
2022/09/10 04:25:59;;;;;;;;;;;;;;;13.67;100.00;100735.25;5073790;28;19912;-71
2022/09/10 04:28:24;;;;;;;;;;;;;;;13.63;100.00;100735.31;5073827;28;19923;-63
2022/09/10 04:30:50;;;;;;;;;;;;;;;13.65;100.00;100730.88;5073816;28;20410;-63
2022/09/10 04:33:15;;;;;;;;;;;;;;;13.71;100.00;100730.81;5073962;28;20318;-65
2022/09/10 04:35:41;;;;;;;;;;;;;;;13.67;100.00;100734.38;5074113;28;19974;-63
2022/09/10 04:38:06;;;;;;;;;;;;;;;13.68;100.00;100733.50;5073845;28;19916;-64
2022/09/10 04:40:33;;;;;;;;;;;;;;;13.65;100.00;100730.88;5073808;28;19908;-63
2022/09/10 04:42:58;;;;;;;;;;;;;;;13.67;100.00;100729.94;5073718;28;19916;-78
2022/09/10 04:45:24;;;;;;;;;;;;;;;13.68;100.00;100730.84;5073894;28;20287;-64
2022/09/10 04:47:51;;;;;;;;;;;;;;;13.67;100.00;100739.69;5073739;28;19946;-70
2022/09/10 04:50:17;;;;;;;;;;;;;;;13.68;100.00;100742.34;5073699;28;19913;-68
2022/09/10 04:52:42;;;;;;;;;;;;;;;13.66;100.00;100741.50;5073555;28;19935;-63
2022/09/10 04:55:08;;;;;;;;;;;;;;;13.69;100.00;100745.88;5073299;28;19919;-74
2022/09/10 04:57:34;;;;;;;;;;;;;;;13.64;100.00;100740.59;5073240;28;20397;-63
2022/09/10 05:00:00;;;;;;;;;;;;;;;13.71;100.00;100749.41;5073646;28;19912;-63
2022/09/10 05:02:25;;;;;;;;;;;;;;;13.70;100.00;100748.53;5073390;28;20363;-64
2022/09/10 05:04:50;;;;;;;;;;;;;;;13.66;100.00;100749.44;5073102;28;19912;-71
2022/09/10 05:07:15;;;;;;;;;;;;;;;13.69;100.00;100751.19;5073292;28;20014;-68
2022/09/10 05:09:41;;;;;;;;;;;;;;;13.71;100.00;100754.72;5073227;28;19912;-64
2022/09/10 05:12:06;;;;;;;;;;;;;;;13.66;100.00;100743.25;5073074;28;19912;-77
2022/09/10 05:14:32;;;;;;;;;;;;;;;13.70;100.00;100745.88;5072801;28;19916;-64
2022/09/10 05:16:58;;;;;;;;;;;;;;;13.71;100.00;100744.09;5073037;28;20347;-64
2022/09/10 05:19:23;;;;;;;;;;;;;;;13.73;100.00;100744.94;5073092;28;20371;-64
2022/09/10 05:21:49;;;;;;;;;;;;;;;13.70;100.00;100745.88;5073018;28;19912;-63
2022/09/10 05:24:14;;;;;;;;;;;;;;;13.77;100.00;100746.69;5072989;28;19950;-64
2022/09/10 05:26:40;;;;;;;;;;;;;;;13.73;100.00;100747.59;5073208;28;19923;-64
2022/09/10 05:29:05;;;;;;;;;;;;;;;13.80;100.00;100746.63;5073159;28;20282;-64
2022/09/10 05:31:31;;;;;;;;;;;;;;;13.81;100.00;100742.22;5072556;28;19916;-64
2022/09/10 05:33:58;;;;;;;;;;;;;;;13.85;100.00;100741.28;5073029;28;19917;-63
2022/09/10 05:36:23;;;;;;;;;;;;;;;13.81;100.00;100743.09;5072921;28;19913;-64
2022/09/10 05:38:49;;;;;;;;;;;;;;;13.84;100.00;100748.38;5072759;28;20282;-64
2022/09/10 05:41:15;;;;;;;;;;;;;;;13.83;100.00;100746.59;5073261;28;19970;-63
2022/09/10 05:43:40;;;;;;;;;;;;;;;13.85;100.00;100744.84;5072644;28;19912;-63
2022/09/10 05:46:07;;;;;;;;;;;;;;;13.85;100.00;100743.94;5073008;28;20011;-63
2022/09/10 05:48:33;;;;;;;;;;;;;;;13.87;100.00;100744.81;5068935;28;19959;-64
2022/09/10 05:50:58;;;;;;;;;;;;;;;13.93;100.00;100745.59;5072626;28;20521;-64
2022/09/10 05:53:23;;;;;;;;;;;;;;;13.94;100.00;100744.72;5072659;28;19912;-71
2022/09/10 05:55:48;;;;;;;;;;;;;;;13.95;100.00;100751.81;5072810;28;19919;-63
2022/09/10 05:58:13;;;;;;;;;;;;;;;13.91;100.00;100750.06;5072794;28;20019;-63
2022/09/10 06:00:39;;;;;;;;;;;;;;;13.93;100.00;100755.38;5072702;28;19934;-64
2022/09/10 06:03:04;;;;;;;;;;;;;;;13.93;100.00;100747.41;5072608;28;19959;-63
2022/09/10 06:05:30;;;;;;;;;;;;;;;14.09;100.00;100748.09;5072427;28;19912;-63
2022/09/10 06:07:55;;;;;;;;;;;;;;;14.01;100.00;100755.28;5072675;28;19919;-63
2022/09/10 06:10:20;;;;;;;;;;;;;;;14.01;100.00;100747.28;5072739;28;19912;-63
2022/09/10 06:12:46;;;;;;;;;;;;;;;14.03;100.00;100754.38;5072405;28;20369;-64
2022/09/10 06:15:12;;;;;;;;;;;;;;;14.03;100.00;100757.03;5072554;28;19912;-64
2022/09/10 06:17:37;;;;;;;;;;;;;;;14.01;100.00;100753.50;5072559;28;20118;-63
2022/09/10 06:20:03;;;;;;;;;;;;;;;14.00;100.00;100753.53;5072384;28;19913;-65
2022/09/10 06:22:29;;;;;;;;;;;;;;;13.99;100.00;100763.25;5072829;28;19912;-63
2022/09/10 06:24:54;;;;;;;;;;;;;;;13.99;100.00;100747.31;5075123;28;19939;-63
2022/09/10 06:27:22;;;;;;;;;;;;;;;14.09;100.00;100748.09;5076040;28;20364;-64
2022/09/10 06:29:47;;;;;;;;;;;;;;;13.93;100.00;100752.72;5076169;28;19912;-64
2022/09/10 06:32:12;;;;;;;;;;;;;;;13.99;100.00;100762.38;5075787;28;19927;-64
2022/09/10 06:34:37;;;;;;;;;;;;;;;13.97;100.00;100766.84;5076042;28;19912;-67
2022/09/10 06:37:04;;;;;;;;;;;;;;;13.95;100.00;100767.75;5075629;28;19919;-73
2022/09/10 06:39:30;;;;;;;;;;;;;;;13.97;100.00;100769.50;5075330;28;19920;-65
2022/09/10 06:41:55;;;;;;;;;;;;;;;13.97;100.00;100774.84;5075985;28;19919;-65
2022/09/10 06:44:21;;;;;;;;;;;;;;;14.01;100.00;100769.47;5075479;28;19912;-64
2022/09/10 06:46:46;;;;;;;;;;;;;;;13.92;100.00;100767.78;5075570;28;19958;-81
2022/09/10 06:49:11;;;;;;;;;;;;;;;14.01;100.00;100766.81;5075800;28;19919;-64
2022/09/10 06:51:38;;;;;;;;;;;;;;;13.97;100.00;100772.16;5075593;28;19913;-76
2022/09/10 06:54:03;;;;;;;;;;;;;;;14.03;100.00;100775.63;5075654;28;19912;-74
2022/09/10 06:56:29;;;;;;;;;;;;;;;13.99;100.00;100773.03;5075836;28;19935;-64
2022/09/10 06:58:56;;;;;;;;;;;;;;;14.08;100.00;100770.25;5075552;28;20007;-64
2022/09/10 07:01:22;;;;;;;;;;;;;;;14.04;100.00;100773.88;5075700;28;19912;-63
2022/09/10 07:03:52;;;;;;;;;;;;;;;14.07;100.00;100771.16;5073880;28;19918;-64
2022/09/10 07:06:17;;;;;;;;;;;;;;;14.11;100.00;100776.44;5075309;28;20359;-63
2022/09/10 07:08:43;;;;;;;;;;;;;;;14.08;100.00;100772.91;5075440;28;19919;-63
2022/09/10 07:11:12;;;;;;;;;;;;;;;14.15;100.00;100782.56;5075454;28;19913;-78
2022/09/10 07:13:38;;;;;;;;;;;;;;;14.14;100.00;100780.84;5075193;28;19919;-81
2022/09/10 07:16:03;;;;;;;;;;;;;;;14.11;100.00;100788.81;5075408;28;20279;-64
2022/09/10 07:18:29;;;;;;;;;;;;;;;14.17;100.00;100775.47;5075351;28;19916;-64
2022/09/10 07:21:05;;;;;;;;;;;;;;;14.24;100.00;100785.16;5075108;28;20003;-64
2022/09/10 07:23:30;;;;;;;;;;;;;;;14.13;100.00;100784.38;5071269;28;19912;-65
2022/09/10 07:26:02;;;;;;;;;;;;;;;14.12;100.00;100793.25;5075119;28;19917;-72
2022/09/10 07:28:27;;;;;;;;;;;;;;;14.09;100.00;100790.63;5075372;28;19913;-65
2022/09/10 07:30:54;;;;;;;;;;;;;;;14.09;100.00;100794.16;5072993;28;20384;-64
2022/09/10 07:33:19;;;;;;;;;;;;;;;14.11;100.00;100788.81;5075169;28;19912;-66
2022/09/10 07:35:44;;;;;;;;;;;;;;;14.17;100.00;100795.84;5074375;28;19917;-64
2022/09/10 07:38:19;;;;;;;;;;;;;;;14.17;100.00;100796.75;5074807;28;19913;-64
2022/09/10 07:40:45;;;;;;;;;;;;;;;14.24;100.00;100797.53;5074661;28;19913;-64
2022/09/10 07:43:10;;;;;;;;;;;;;;;14.23;100.00;100802.00;5074875;28;20113;-64
2022/09/10 07:45:35;;;;;;;;;;;;;;;14.37;100.00;100800.94;5074404;28;19920;-68
2022/09/10 07:48:01;;;;;;;;;;;;;;;14.30;100.00;100806.34;5074507;28;19912;-64
2022/09/10 07:50:27;;;;;;;;;;;;;;;14.32;100.00;100800.13;5074665;28;19916;-64
2022/09/10 07:52:52;;;;;;;;;;;;;;;14.40;100.00;100803.56;5074719;28;20295;-74
2022/09/10 07:55:18;;;;;;;;;;;;;;;14.48;100.00;100807.88;5074703;28;20244;-64
2022/09/10 07:57:44;;;;;;;;;;;;;;;14.49;100.00;100800.81;5074378;28;19908;-64
2022/09/10 08:00:11;;;;;;;;;;;;;;;14.50;100.00;100813.19;5074462;28;19959;-68
2022/09/10 08:02:36;;;;;;;;;;;;;;;14.55;100.00;100819.34;5074738;28;19912;-70
2022/09/10 08:05:03;;;;;;;;;;;;;;;14.63;100.00;100822.84;5074196;28;19919;-64
2022/09/10 08:07:29;;;;;;;;;;;;;;;14.67;100.00;100825.44;5074269;28;19912;-68
2022/09/10 08:09:55;;;;;;;;;;;;;;;14.70;100.00;100820.94;5074675;28;20064;-77
2022/09/10 08:12:20;;;;;;;;;;;;;;;14.80;100.00;100824.38;5074341;28;19912;-79
2022/09/10 08:14:46;;;;;;;;;;;;;;;14.85;100.00;100827.84;5074196;28;19912;-64
2022/09/10 08:17:11;;;;;;;;;;;;;;;14.93;100.00;100828.63;5074394;28;19934;-64
2022/09/10 08:19:36;;;;;;;;;;;;;;;14.89;100.00;100834.03;5074196;28;20369;-64
2022/09/10 08:22:02;;;;;;;;;;;;;;;14.91;100.00;100845.50;5074024;28;19913;-65
2022/09/10 08:24:27;;;;;;;;;;;;;;;14.82;100.00;100838.53;5074010;28;19913;-64
2022/09/10 08:26:53;;;;;;;;;;;;;;;14.87;100.00;100846.44;5074138;28;20033;-64
2022/09/10 08:29:18;;;;;;;;;;;;;;;14.86;100.00;100856.22;5073766;28;19913;-64
2022/09/10 08:31:43;;;;;;;;;;;;;;;14.87;100.00;100850.00;5073596;28;20033;-63
2022/09/10 08:34:10;;;;;;;;;;;;;;;14.95;100.00;100853.44;5073721;28;19912;-64
2022/09/10 08:36:35;;;;;;;;;;;;;;;14.98;100.00;100858.75;5068861;28;19912;-66
2022/09/10 08:39:00;;;;;;;;;;;;;;;15.03;100.00;100856.00;5071314;28;19951;-66
2022/09/10 08:41:38;;;;;;;;;;;;;;;15.12;100.00;100862.97;5071643;28;19919;-68
2022/09/10 08:44:09;;;;;;;;;;;;;;;15.24;100.00;100864.59;5070165;28;19923;-66
2022/09/10 08:46:40;;;;;;;;;;;;;;;15.24;100.00;100870.78;5070909;28;20274;-68
2022/09/10 08:49:24;;;;;;;;;;;;;;;15.36;100.00;100874.16;5070132;28;19916;-66
2022/09/10 08:51:52;;;;;;;;;;;;;;;15.33;100.00;100876.00;5071195;28;19951;-67
2022/09/10 08:54:20;;;;;;;;;;;;;;;15.29;100.00;100874.28;5068325;28;19959;-67
2022/09/10 08:56:46;;;;;;;;;;;;;;;15.23;100.00;100882.34;5071492;28;19958;-65
2022/09/10 08:59:19;;;;;;;;;;;;;;;15.10;100.00;100884.31;5071108;28;19920;-66
2022/09/10 09:01:49;;;;;;;;;;;;;;;15.04;100.00;100888.81;5069909;28;19916;-80
2022/09/10 09:04:27;;;;;;;;;;;;;;;14.97;100.00;100883.59;5070180;28;19919;-78
2022/09/10 09:06:55;;;;;;;;;;;;;;;14.92;100.00;100884.53;5071027;28;19919;-79
2022/09/10 09:09:21;;;;;;;;;;;;;;;14.84;100.00;100891.72;5071492;28;19946;-85
2022/09/10 09:12:04;;;;;;;;;;;;;;;14.89;100.00;100893.44;5071035;28;20469;-79
2022/09/10 09:14:48;;;;;;;;;;;;;;;14.79;100.00;100890.03;5070708;28;20351;-80
2022/09/10 09:17:16;;;;;;;;;;;;;;;14.88;100.00;100886.38;5069253;28;20173;-87
2022/09/10 09:19:50;;;;;;;;;;;;;;;14.87;100.00;100889.03;5070796;28;19912;-82
2022/09/10 09:22:17;;;;;;;;;;;;;;;14.96;100.00;100897.78;5071002;28;20347;-83
2022/09/10 09:24:56;;;;;;;;;;;;;;;15.06;100.00;100887.03;5068664;28;19913;-88
2022/09/10 09:29:10;;;;;;;39.00;30.65;;;;;;;15.21;100.00;100889.47;5539626;22;21080;-71
2022/09/10 09:31:46;;;;;;;42.53;31.05;;;;;;;15.28;100.00;100893.81;5109493;28;20176;-69
2022/09/10 09:34:37;;;;;;;43.97;31.48;;;;;;;15.35;100.00;100899.94;5108067;28;20552;-65
2022/09/10 09:37:11;;;;;;;41.67;32.28;;;;;;;15.46;100.00;100900.63;5109973;28;20036;-65
2022/09/10 09:40:01;;;;;;;41.78;31.48;;;;;;;15.49;100.00;100892.63;5109295;28;20495;-65
2022/09/10 09:42:48;;;;;;;38.95;30.08;;;;;;;15.45;100.00;100890.91;5108028;28;20024;-65
2022/09/10 09:45:35;;;;;;;38.97;29.98;;;;;;;15.52;100.00;100905.00;5120263;28;20032;-65
2022/09/10 09:48:08;;;;;;;39.35;29.33;;;;;;;15.54;100.00;100899.63;5108512;28;20035;-65
2022/09/10 09:50:40;;;;;;;36.78;29.17;;;;;;;15.52;100.00;100908.56;5109350;28;20123;-65
2022/09/10 09:53:08;;;;;;;38.33;29.30;;;;;;;15.50;100.00;100888.16;5109408;28;20032;-65
2022/09/10 09:55:39;;;;;;;37.17;28.50;;;;;;;15.50;100.00;100894.34;5108675;28;20473;-65
2022/09/10 09:58:19;;;;;;;35.95;28.55;;;;;;;15.46;100.00;100907.75;5109460;28;20423;-65
2022/09/10 10:00:47;;;;;;;35.35;26.80;;;;;;;15.44;100.00;100909.56;5106233;28;20085;-65
2022/09/10 10:03:17;;;;;;;37.72;28.10;;;;;;;15.46;100.00;100899.75;5109729;28;20485;-65
2022/09/10 10:05:42;;;;;;;36.83;28.95;;;;;;;15.45;100.00;100890.00;5109707;28;20111;-65
2022/09/10 10:08:40;;;;;;;40.22;29.15;;;;;;;15.55;100.00;100902.28;5110056;28;20115;-65
2022/09/10 10:11:06;;;;;;;41.85;31.10;;;;;;;15.95;100.00;100900.81;5107220;28;20044;-65
2022/09/10 10:13:45;;;;;;;40.55;31.42;;;;;;;16.32;100.00;100901.00;5109815;28;20089;-65
2022/09/10 10:16:22;;;;;;;39.33;30.65;;;;;;;16.23;100.00;100916.31;5109976;28;20039;-65
2022/09/10 10:18:48;;;;;;;39.85;31.08;;;;;;;16.25;100.00;100925.16;5105795;28;20083;-65
2022/09/10 10:21:29;;;;;;;39.58;30.92;;;;;;;16.30;100.00;100917.97;5109764;28;20022;-65
2022/09/10 10:23:55;;;;;;;34.47;28.02;;;;;;;16.37;100.00;100901.81;5107016;28;20024;-65
2022/09/10 10:26:20;;;;;;;36.15;27.55;;;;;;;16.41;100.00;100902.66;5109457;28;20462;-65
2022/09/10 10:28:52;;;;;;;34.35;26.00;;;;;;;16.41;100.00;100907.09;5090689;28;20052;-65
2022/09/10 10:31:18;;;;;;;;;;;;;;;16.46;100.00;100918.56;5097557;28;20525;-65
2022/09/10 10:34:08;;;;;;;31.75;23.70;;;;;;;16.25;100.00;100909.16;5101019;28;19911;-65
2022/09/10 10:36:37;;;;;;;32.47;24.67;;;;;;;16.13;100.00;100912.94;5099788;28;20097;-65
2022/09/10 10:39:23;;;;;;;31.42;22.90;;;;;;;16.06;100.00;100913.94;5091607;28;20129;-65
2022/09/10 10:41:51;;;;;;;32.42;24.92;;;;;;;16.04;100.00;100917.50;5083279;28;20098;-65
2022/09/10 10:44:48;;;;;;;32.45;24.80;;;;;;;16.10;100.00;100926.31;5083468;28;20108;-65
2022/09/10 10:47:31;;;;;;;31.88;24.08;;;;;;;16.16;100.00;100926.22;5086797;28;20036;-65
2022/09/10 10:50:02;;;;;;;30.75;21.65;;;;;;;16.04;100.00;100916.63;5084554;28;20021;-65
2022/09/10 10:53:05;;;;;;;31.00;22.10;;;;;;;15.97;100.00;100937.19;5085704;28;20374;-65
2022/09/10 10:55:50;;;;;;;30.60;21.17;;;;;;;16.00;100.00;100925.59;5085153;28;20033;-65
2022/09/10 10:58:58;;;;;;;29.88;20.05;;;;;;;15.99;100.00;100938.06;5020624;28;20038;-65
2022/09/10 11:01:28;;;;;;;30.20;20.83;;;;;;;15.99;100.00;100940.72;5025410;28;20040;-65
2022/09/10 11:04:15;;;;;;;28.85;19.67;;;;;;;15.93;100.00;100935.50;5022095;28;20034;-66
2022/09/10 11:06:48;;;;;;;30.48;20.45;;;;;;;15.89;100.00;100939.09;5021949;28;20181;-66
2022/09/10 11:09:22;;;;;;;32.00;20.83;;;;;;;15.79;100.00;100938.38;5024344;28;20092;-66
2022/09/10 11:11:54;;;;;;;34.00;21.80;;;;;;;15.71;100.00;100932.22;5020973;28;20527;-66
2022/09/10 11:14:28;;;;;;;33.30;21.30;;;;;;;15.68;100.00;100933.19;5024438;28;20037;-66
2022/09/10 11:17:03;;;;;;;34.15;21.33;;;;;;;15.73;100.00;100953.53;5024531;28;20041;-66
2022/09/10 11:19:37;;;;;;;32.72;21.15;;;;;;;15.74;100.00;100955.28;5023255;28;20029;-66
2022/09/10 11:22:21;;;;;;;33.63;21.13;;;;;;;15.73;100.00;100946.44;5022539;28;20030;-66
2022/09/10 11:24:51;;;;;;;33.03;20.85;;;;;;;15.80;100.00;100952.56;5020918;28;20080;-66
2022/09/10 11:27:27;;;;;;;32.30;20.67;;;;;;;15.78;100.00;100946.34;5025210;28;20505;-65
2022/09/10 11:30:02;;;;;;;31.70;20.58;;;;;;;15.78;100.00;100943.69;5020294;28;20054;-66
2022/09/10 11:32:57;;;;;;;30.98;19.63;;;;;;;15.92;100.00;100941.72;5022914;28;20502;-66
2022/09/10 11:35:44;;;;;;;31.17;19.33;;;;;;;15.89;100.00;100939.09;5054764;28;20116;-66
2022/09/10 11:38:27;;;;;;;31.30;18.88;;;;;;;15.94;100.00;100947.91;5083046;28;20035;-78
2022/09/10 11:41:13;;;;;;;29.42;18.13;;;;;;;16.01;100.00;100949.56;5082878;28;20024;-78
2022/09/10 11:43:55;;;;;;;30.35;18.10;;;;;;;15.89;100.00;100957.78;5082894;28;20533;-79
2022/09/10 11:46:27;;;;;;;29.85;19.00;;;;;;;15.90;100.00;100953.31;5082705;28;20148;-72
2022/09/10 11:49:04;;;;;;;30.50;19.45;;;;;;;15.97;100.00;100950.50;5082887;28;20100;-81
2022/09/10 11:51:32;;;;;;;30.85;20.08;;;;;;;16.03;100.00;100953.09;5083508;28;20404;-77
2022/09/10 11:54:01;;;;;;;33.13;21.63;;;;;;;16.05;100.00;100955.72;5083222;28;20539;-73
2022/09/10 11:56:49;;;;;;;34.17;23.67;;;;;;;16.14;100.00;100960.03;5085136;28;20024;-72
2022/09/10 11:59:34;;;;;;;32.83;23.92;;;;;;;16.04;100.00;100954.84;5085752;28;20028;-79
2022/09/10 12:02:02;;;;;;;34.08;23.63;;;;;;;16.13;100.00;100955.59;5083370;28;20031;-68
2022/09/10 12:04:44;;;;;;;32.67;23.88;;;;;;;16.20;100.00;100949.25;5084713;28;20035;-69
2022/09/10 12:07:16;;;;;;;31.13;23.02;;;;;;;16.22;100.00;100952.75;5084763;28;20025;-75
2022/09/10 12:09:41;;;;;;;35.03;25.27;;;;;;;16.56;100.00;100947.72;5082645;28;20063;-72
2022/09/10 12:12:19;;;;;;;36.03;26.85;;;;;;;17.60;100.00;100964.28;5084099;28;20029;-67
2022/09/10 12:14:44;;;;;;;35.38;26.67;;;;;;;18.63;100.00;100958.19;5082439;28;20478;-66
2022/09/10 12:17:17;;;;;;;28.95;20.98;;;;;;;19.49;100.00;100963.75;5084524;28;20103;-72